Time;durP1;ratioP1;P1;durP2;ratioP2;P2;SDS_P1;SDS_P2;PMS_P1;PMS_P2;Temp;Humidity;BMP_temperature;BMP_pressure;BME280_temperature;BME280_humidity;BME280_pressure;Samples;Min_cycle;Max_cycle;Signal;HPM_P1;HPM_P2
2022/01/29 00:01:32;;;;;;;52.08;48.15;;;;;;;1.26;100.00;101490.72;5013268;28;20124;-80
2022/01/29 00:03:59;;;;;;;51.15;47.55;;;;;;;1.20;100.00;101493.03;5003512;28;20054;-78
2022/01/29 00:06:26;;;;;;;51.33;47.50;;;;;;;1.33;100.00;101496.28;5004487;28;20050;-81
2022/01/29 00:08:56;;;;;;;51.42;47.97;;;;;;;1.11;100.00;101495.44;5007491;28;20058;-79
2022/01/29 00:11:28;;;;;;;53.92;50.53;;;;;;;1.24;100.00;101499.66;5005270;28;20471;-82
2022/01/29 00:13:55;;;;;;;49.00;45.70;;;;;;;1.03;100.00;101499.63;5004582;28;20057;-78
2022/01/29 00:16:22;;;;;;;49.78;46.58;;;;;;;1.25;100.00;101510.00;5002383;28;20046;-81
2022/01/29 00:18:49;;;;;;;50.22;47.03;;;;;;;1.49;100.00;101511.56;5005109;28;20053;-77
2022/01/29 00:21:16;;;;;;;52.95;49.45;;;;;;;1.01;100.00;101506.78;5006249;28;20387;-78
2022/01/29 00:23:43;;;;;;;50.28;46.45;;;;;;;1.16;100.00;101509.94;5011524;28;20058;-81
2022/01/29 00:26:11;;;;;;;50.00;46.78;;;;;;;1.18;100.00;101501.00;5001107;28;20136;-81
2022/01/29 00:28:40;;;;;;;50.88;47.38;;;;;;;0.91;100.00;101510.16;5005866;28;20049;-78
2022/01/29 00:31:10;;;;;;;47.60;44.72;;;;;;;1.51;100.00;101507.03;5012123;28;20045;-80
2022/01/29 00:33:37;;;;;;;52.63;48.63;;;;;;;1.28;100.00;101509.75;5013923;28;20060;-82
2022/01/29 00:36:05;;;;;;;50.33;47.08;;;;;;;1.41;100.00;101519.22;5007020;28;20136;-83
2022/01/29 00:38:33;;;;;;;51.10;47.90;;;;;;;1.32;100.00;101524.25;5005130;28;20057;-79
2022/01/29 00:41:00;;;;;;;49.33;46.15;;;;;;;1.34;100.00;101532.00;5004829;28;20466;-78
2022/01/29 00:43:27;;;;;;;51.92;48.40;;;;;;;1.62;100.00;101534.94;5009393;28;20510;-80
2022/01/29 00:45:55;;;;;;;51.90;48.20;;;;;;;1.52;100.00;101534.88;5013235;28;20049;-80
2022/01/29 00:48:22;;;;;;;50.80;47.30;;;;;;;1.79;100.00;101539.63;5011740;28;20442;-81
2022/01/29 00:50:48;;;;;;;51.08;47.58;;;;;;;1.46;100.00;101541.44;5006289;28;20054;-81
2022/01/29 00:53:15;;;;;;;54.10;50.55;;;;;;;1.45;100.00;101531.91;5002563;28;20046;-80
2022/01/29 00:55:42;;;;;;;54.22;50.42;;;;;;;1.40;100.00;101535.91;5006746;28;20112;-77
2022/01/29 00:58:09;;;;;;;51.45;47.70;;;;;;;1.11;100.00;101533.84;5004744;28;20112;-77
2022/01/29 01:00:36;;;;;;;51.75;48.00;;;;;;;0.98;100.00;101526.16;5007124;28;20506;-81
2022/01/29 01:03:04;;;;;;;52.22;48.03;;;;;;;1.05;100.00;101537.78;5007946;28;20123;-79
2022/01/29 01:05:31;;;;;;;50.10;46.70;;;;;;;1.31;100.00;101537.47;5008482;28;20482;-79
2022/01/29 01:07:58;;;;;;;56.78;52.80;;;;;;;1.08;100.00;101529.69;5002163;28;20467;-79
2022/01/29 01:10:24;;;;;;;54.00;50.60;;;;;;;1.38;100.00;101525.53;5008215;28;20065;-79
2022/01/29 01:12:51;;;;;;;51.85;48.28;;;;;;;1.03;100.00;101529.25;5003077;28;20113;-79
2022/01/29 01:15:19;;;;;;;59.50;55.30;;;;;;;1.14;100.00;101526.56;5011959;28;20045;-79
2022/01/29 01:17:47;;;;;;;59.05;55.03;;;;;;;0.98;100.00;101530.56;5008981;28;20065;-79
2022/01/29 01:20:15;;;;;;;52.97;49.35;;;;;;;1.01;100.00;101530.31;5008332;28;20486;-80
2022/01/29 01:22:42;;;;;;;51.58;47.80;;;;;;;0.99;100.00;101527.81;5012000;28;20051;-79
2022/01/29 01:25:10;;;;;;;53.80;49.92;;;;;;;1.19;100.00;101543.72;5006967;28;20060;-76
2022/01/29 01:27:37;;;;;;;54.03;50.33;;;;;;;1.38;100.00;101543.84;5015194;28;20108;-78
2022/01/29 01:30:04;;;;;;;49.85;46.55;;;;;;;1.33;100.00;101525.06;5010228;28;20054;-80
2022/01/29 01:32:31;;;;;;;52.28;48.60;;;;;;;1.28;100.00;101522.84;5015116;28;20054;-79
2022/01/29 01:35:08;;;;;;;55.40;51.80;;;;;;;1.30;100.00;101520.94;5014637;28;20050;-81
2022/01/29 01:37:42;;;;;;;52.80;49.13;;;;;;;1.33;100.00;101522.47;5010936;28;20046;-80
2022/01/29 01:40:11;;;;;;;50.05;46.35;;;;;;;1.12;100.00;101522.41;5013951;28;20478;-77
2022/01/29 01:42:38;;;;;;;53.53;49.78;;;;;;;1.14;100.00;101507.44;5011593;28;20081;-80
2022/01/29 01:45:06;;;;;;;53.97;50.10;;;;;;;1.25;100.00;101515.25;5012588;28;20124;-78
2022/01/29 01:47:33;;;;;;;51.15;48.03;;;;;;;1.21;100.00;101515.59;5008602;28;20475;-78
2022/01/29 01:50:00;;;;;;;53.78;50.08;;;;;;;1.00;100.00;101516.41;5004074;28;20054;-80
2022/01/29 01:52:27;;;;;;;53.22;49.40;;;;;;;0.98;100.00;101515.72;5003076;28;20057;-78
2022/01/29 01:54:55;;;;;;;53.30;49.95;;;;;;;0.97;100.00;101516.66;5015561;28;20064;-79
2022/01/29 01:57:22;;;;;;;55.22;50.97;;;;;;;1.04;100.00;101509.16;5021936;28;20049;-80
2022/01/29 01:59:48;;;;;;;53.40;49.15;;;;;;;0.86;100.00;101507.06;5018723;28;20050;-81
2022/01/29 02:02:16;;;;;;;49.25;46.10;;;;;;;1.29;100.00;101507.97;5013609;28;22132;-77
2022/01/29 02:04:42;;;;;;;53.25;49.22;;;;;;;0.93;100.00;101506.56;5007968;28;20049;-80
2022/01/29 02:07:09;;;;;;;53.00;48.85;;;;;;;0.91;100.00;101512.75;5009797;28;20479;-78
2022/01/29 02:09:39;;;;;;;50.97;47.25;;;;;;;0.99;100.00;101521.75;5011457;28;20049;-80
2022/01/29 02:12:09;;;;;;;52.65;49.10;;;;;;;0.89;100.00;101521.69;5012533;28;20112;-80
2022/01/29 02:14:38;;;;;;;49.47;45.78;;;;;;;0.84;100.00;101532.50;5005574;28;20128;-82
2022/01/29 02:17:06;;;;;;;50.42;46.67;;;;;;;1.30;100.00;101530.56;5016810;28;20459;-77
2022/01/29 02:19:33;;;;;;;52.28;48.78;;;;;;;0.72;100.00;101545.72;5012071;28;20046;-77
2022/01/29 02:22:01;;;;;;;52.03;48.58;;;;;;;0.66;100.00;101541.81;5007821;28;20104;-78
2022/01/29 02:24:28;;;;;;;51.85;48.05;;;;;;;0.59;100.00;101538.03;5010443;28;20056;-79
2022/01/29 02:26:55;;;;;;;54.03;50.10;;;;;;;0.52;100.00;101539.47;5005873;28;20132;-79
2022/01/29 02:29:22;;;;;;;60.58;56.47;;;;;;;0.39;100.00;101548.28;5005746;28;20442;-79
2022/01/29 02:31:51;;;;;;;55.88;51.90;;;;;;;0.42;100.00;101545.41;5017006;28;20061;-80
2022/01/29 02:34:18;;;;;;;51.13;47.65;;;;;;;0.84;100.00;101547.38;5011370;28;20046;-79
2022/01/29 02:36:46;;;;;;;53.35;49.63;;;;;;;0.34;100.00;101557.41;5005880;28;20049;-79
2022/01/29 02:39:16;;;;;;;52.28;48.65;;;;;;;0.71;100.00;101557.97;5010729;28;20453;-81
2022/01/29 02:41:44;;;;;;;55.35;51.75;;;;;;;0.47;100.00;101559.91;5011154;28;20045;-80
2022/01/29 02:44:14;;;;;;;55.50;51.72;;;;;;;0.61;100.00;101554.44;5007374;28;20474;-80
2022/01/29 02:49:27;;;;;;;51.88;48.55;;;;;;;0.77;100.00;101546.19;5007306;28;20141;-79
2022/01/29 02:51:56;;;;;;;57.30;53.47;;;;;;;0.63;100.00;101540.25;5005560;28;20113;-81
2022/01/29 02:54:26;;;;;;;57.13;53.42;;;;;;;0.46;100.00;101546.00;5003963;28;20046;-82
2022/01/29 02:56:53;;;;;;;54.13;50.67;;;;;;;1.15;100.00;101551.00;5006445;28;20115;-79
2022/01/29 02:59:20;;;;;;;51.75;48.15;;;;;;;1.19;100.00;101559.41;5004899;28;20042;-78
2022/01/29 03:01:47;;;;;;;53.72;49.80;;;;;;;0.54;100.00;101567.13;5134617;23;20127;-80
2022/01/29 03:04:14;;;;;;;54.83;51.22;;;;;;;0.94;100.00;101547.44;5028796;28;20053;-81
2022/01/29 03:06:41;;;;;;;56.80;53.00;;;;;;;0.47;100.00;101560.72;5022923;28;20058;-77
2022/01/29 03:09:08;;;;;;;53.78;50.00;;;;;;;0.77;100.00;101551.44;5026657;28;20533;-81
2022/01/29 03:11:36;;;;;;;50.65;47.45;;;;;;;1.22;100.00;101548.69;5022232;28;20570;-81
2022/01/29 03:14:03;;;;;;;53.85;50.42;;;;;;;0.42;100.00;101571.56;5026541;28;20053;-80
2022/01/29 03:16:30;;;;;;;54.55;51.03;;;;;;;0.91;100.00;101562.47;5030663;28;20054;-82
2022/01/29 03:18:56;;;;;;;51.03;47.60;;;;;;;0.54;100.00;101571.53;5031607;28;20606;-79
2022/01/29 03:21:23;;;;;;;56.22;52.15;;;;;;;0.48;100.00;101569.41;5019638;28;20045;-78
2022/01/29 03:23:50;;;;;;;60.58;56.53;;;;;;;0.56;100.00;101567.84;5023909;28;20053;-79
2022/01/29 03:26:17;;;;;;;57.95;53.92;;;;;;;0.30;100.00;101567.25;5029841;28;20061;-79
2022/01/29 03:28:45;;;;;;;56.42;52.60;;;;;;;0.52;100.00;101573.44;5029724;28;20131;-79
2022/01/29 03:31:12;;;;;;;53.28;49.65;;;;;;;0.52;100.00;101579.50;5025840;28;20112;-81
2022/01/29 03:33:38;;;;;;;52.63;48.88;;;;;;;0.32;100.00;101578.41;5024166;28;20104;-79
2022/01/29 03:36:06;;;;;;;56.40;52.42;;;;;;;0.26;100.00;101578.06;5024136;28;20461;-78
2022/01/29 03:38:33;;;;;;;53.97;50.17;;;;;;;0.40;100.00;101583.91;5028448;28;20049;-79
2022/01/29 03:41:01;;;;;;;49.20;45.88;;;;;;;0.37;100.00;101589.38;5018994;28;20054;-78
2022/01/29 03:43:32;;;;;;;50.28;46.83;;;;;;;0.30;100.00;101580.31;5018490;28;20057;-78
2022/01/29 03:46:00;;;;;;;55.50;51.55;;;;;;;0.31;100.00;101578.56;5035374;28;20060;-78
2022/01/29 03:48:27;;;;;;;55.72;52.10;;;;;;;0.29;100.00;101580.44;5028488;28;20045;-79
2022/01/29 03:50:53;;;;;;;52.58;48.97;;;;;;;0.24;100.00;101578.16;5025747;28;20473;-81
2022/01/29 03:53:20;;;;;;;59.45;55.38;;;;;;;0.71;100.00;101586.72;5027642;28;20041;-78
2022/01/29 03:55:47;;;;;;;59.65;55.67;;;;;;;0.36;100.00;101590.28;5022726;28;20111;-78
2022/01/29 03:58:14;;;;;;;52.58;48.90;;;;;;;0.50;100.00;101604.94;5030075;28;20444;-79
2022/01/29 04:00:41;;;;;;;54.53;50.58;;;;;;;0.39;100.00;101597.06;5023056;28;20045;-81
2022/01/29 04:03:09;;;;;;;58.75;54.72;;;;;;;0.13;100.00;101609.53;5029552;28;20115;-79
2022/01/29 04:05:36;;;;;;;54.58;50.80;;;;;;;0.64;100.00;101609.94;5032065;28;20394;-79
2022/01/29 04:08:07;;;;;;;51.88;48.38;;;;;;;0.42;100.00;101610.75;5031676;28;20050;-79
2022/01/29 04:10:33;;;;;;;51.30;47.90;;;;;;;0.50;100.00;101606.72;5022794;28;20125;-81
2022/01/29 04:13:01;;;;;;;57.33;53.63;;;;;;;0.13;100.00;101601.69;5024420;28;20057;-79
2022/01/29 04:15:28;;;;;;;53.40;50.03;;;;;;;0.21;100.00;101604.53;5024854;28;20068;-80
2022/01/29 04:17:54;;;;;;;52.17;48.88;;;;;;;0.29;100.00;101612.63;5023242;28;20123;-79
2022/01/29 04:20:22;;;;;;;47.25;44.13;;;;;;;0.52;100.00;101607.44;5024189;28;20505;-79
2022/01/29 04:22:49;;;;;;;53.95;50.05;;;;;;;0.04;100.00;101620.69;5025864;28;20107;-78
2022/01/29 04:25:16;;;;;;;54.53;50.83;;;;;;;0.21;100.00;101604.53;5027948;28;20049;-82
2022/01/29 04:27:46;;;;;;;53.22;49.58;;;;;;;0.09;100.00;101613.31;5027032;28;20065;-82
2022/01/29 04:30:23;;;;;;;53.15;49.88;;;;;;;0.27;100.00;101621.53;5029650;28;20045;-79
2022/01/29 04:33:14;;;;;;;54.40;50.40;;;;;;;0.40;100.00;101622.28;5020216;28;20088;-80
2022/01/29 04:35:42;;;;;;;56.42;52.53;;;;;;;0.07;100.00;101621.28;5021144;28;20057;-80
2022/01/29 04:38:09;;;;;;;58.00;54.00;;;;;;;-0.06;100.00;101633.56;5026192;28;20053;-79
2022/01/29 04:40:35;;;;;;;54.03;50.63;;;;;;;0.28;100.00;101628.44;5027488;28;20045;-79
2022/01/29 04:43:02;;;;;;;60.95;57.00;;;;;;;0.19;100.00;101648.25;5022515;28;20041;-79
2022/01/29 04:45:29;;;;;;;54.75;51.15;;;;;;;0.08;100.00;101643.00;5024526;28;20046;-79
2022/01/29 04:47:56;;;;;;;54.72;50.80;;;;;;;0.08;100.00;101646.44;5021595;28;20160;-81
2022/01/29 04:50:23;;;;;;;53.05;49.53;;;;;;;-0.08;100.00;101644.16;5031005;28;20049;-81
2022/01/29 04:52:51;;;;;;;50.00;46.60;;;;;;;-0.01;100.00;101652.34;5029889;28;20042;-79
2022/01/29 04:55:18;;;;;;;60.13;56.22;;;;;;;-0.09;100.00;101652.94;5025317;28;20123;-81
2022/01/29 04:57:45;;;;;;;59.85;55.85;;;;;;;0.09;100.00;101650.75;5028139;28;20139;-82
2022/01/29 05:00:19;;;;;;;54.67;51.05;;;;;;;-0.03;100.00;101651.63;5032831;28;20619;-80
2022/01/29 05:02:46;;;;;;;56.85;52.95;;;;;;;0.04;100.00;101657.25;5029666;28;20119;-81
2022/01/29 05:05:12;;;;;;;59.65;55.22;;;;;;;0.12;100.00;101666.19;5027844;28;20045;-81
2022/01/29 05:07:39;;;;;;;54.72;50.85;;;;;;;-0.06;100.00;101668.38;5027206;28;20046;-79
2022/01/29 05:10:08;;;;;;;55.38;51.65;;;;;;;0.06;100.00;101663.16;5026953;28;20046;-81
2022/01/29 05:12:44;;;;;;;55.72;51.80;;;;;;;-0.09;100.00;101660.78;5023371;28;20552;-79
2022/01/29 05:15:17;;;;;;;53.85;50.05;;;;;;;0.19;100.00;101684.84;5029864;28;20052;-83
2022/01/29 05:28:42;;;;;;;50.30;46.80;;;;;;;-0.20;100.00;101686.00;5033925;28;20075;-81
2022/01/29 05:31:08;;;;;;;50.47;46.85;;;;;;;-0.25;100.00;101700.22;5029392;28;20497;-81
2022/01/29 05:33:35;;;;;;;59.70;53.97;;;;;;;-0.34;100.00;101694.81;5031266;28;20053;-82
2022/01/29 05:36:02;;;;;;;56.85;52.63;;;;;;;-0.46;100.00;101699.16;5030676;28;20046;-79
2022/01/29 05:38:29;;;;;;;57.20;52.83;;;;;;;-0.50;100.00;101711.59;5034247;28;20057;-78
2022/01/29 05:40:57;;;;;;;55.00;50.78;;;;;;;-0.57;100.00;101706.94;5032919;28;20045;-80
2022/01/29 05:43:24;;;;;;;51.70;47.80;;;;;;;-0.60;100.00;101717.59;5031601;28;20048;-78
2022/01/29 05:45:51;;;;;;;51.90;47.85;;;;;;;-0.63;100.00;101713.41;5035148;28;20041;-82
2022/01/29 05:48:18;;;;;;;60.03;54.90;;;;;;;-0.73;100.00;101726.28;5034181;28;20103;-76
2022/01/29 05:50:44;;;;;;;51.08;47.20;;;;;;;-0.68;100.00;101730.34;5033383;28;20087;-78
2022/01/29 05:53:11;;;;;;;60.22;54.92;;;;;;;-0.66;100.00;101736.28;5033059;28;20053;-81
2022/01/29 05:55:38;;;;;;;52.53;48.45;;;;;;;-0.71;100.00;101739.22;5034481;28;20393;-79
2022/01/29 05:58:06;;;;;;;51.63;47.83;;;;;;;-0.72;100.00;101741.00;5026805;28;20486;-78
2022/01/29 06:00:33;;;;;;;57.70;53.05;;;;;;;-0.65;100.00;101744.00;5026016;28;20050;-80
2022/01/29 06:03:02;;;;;;;57.13;52.15;;;;;;;-0.60;100.00;101749.75;5029309;28;20119;-79
2022/01/29 06:05:29;;;;;;;52.38;48.13;;;;;;;-0.49;100.00;101748.97;5026647;28;20075;-78
2022/01/29 06:07:56;;;;;;;50.70;46.85;;;;;;;-0.47;100.00;101753.13;5030749;28;20445;-81
2022/01/29 06:10:23;;;;;;;55.15;50.80;;;;;;;-0.44;100.00;101739.03;5026567;28;20069;-81
2022/01/29 06:13:01;;;;;;;57.38;52.50;;;;;;;-0.36;100.00;101757.59;5031131;28;20050;-79
2022/01/29 06:15:35;;;;;;;59.90;54.75;;;;;;;-0.16;100.00;101757.94;5026734;28;20053;-78
2022/01/29 06:18:03;;;;;;;55.60;51.00;;;;;;;-0.07;100.00;101765.13;5027102;28;20053;-79
2022/01/29 06:20:33;;;;;;;57.78;52.45;;;;;;;0.19;100.00;101774.50;5024920;28;20477;-78
2022/01/29 06:23:02;;;;;;;55.72;50.83;;;;;;;2.05;100.00;101774.09;5045577;28;20052;-78
2022/01/29 06:25:30;;;;;;;53.25;49.22;;;;;;;0.52;100.00;101779.97;5017321;28;20056;-82
2022/01/29 06:28:01;;;;;;;51.10;47.80;;;;;;;0.82;100.00;101779.44;5036214;28;20128;-83
2022/01/29 06:30:27;;;;;;;49.03;45.65;;;;;;;0.89;100.00;101783.25;5023232;28;20050;-84
2022/01/29 06:32:56;;;;;;;54.63;49.88;;;;;;;1.24;100.00;101793.66;5035484;28;20115;-84
2022/01/29 06:35:23;;;;;;;59.13;53.10;;;;;;;1.17;100.00;101797.66;5025135;28;20493;-82
2022/01/29 06:37:49;;;;;;;56.08;51.00;;;;;;;1.92;100.00;101804.03;5033354;28;20049;-84
2022/01/29 06:40:16;;;;;;;53.50;49.08;;;;;;;2.14;100.00;101793.47;5033969;28;20479;-84
2022/01/29 06:42:43;;;;;;;47.13;44.20;;;;;;;1.83;100.00;101805.59;5029975;28;20057;-83
2022/01/29 06:45:10;;;;;;;60.97;56.22;;;;;;;2.49;100.00;101790.59;5024908;28;20459;-84
2022/01/29 06:47:37;;;;;;;50.25;46.60;;;;;;;1.99;100.00;101794.72;5034369;28;20045;-84
2022/01/29 06:50:06;;;;;;;48.42;45.25;;;;;;;1.91;100.00;101782.25;5033582;28;20115;-84
2022/01/29 06:52:33;;;;;;;50.10;46.78;;;;;;;2.03;100.00;101781.25;5025526;28;20042;-83
2022/01/29 06:54:59;;;;;;;53.45;49.45;;;;;;;2.24;100.00;101785.69;5024673;28;20188;-84
2022/01/29 06:57:26;;;;;;;49.97;46.80;;;;;;;1.40;100.00;101800.31;5024269;28;20057;-82
2022/01/29 06:59:53;;;;;;;51.20;47.90;;;;;;;1.55;100.00;101796.50;5030699;28;20057;-83
2022/01/29 07:02:20;;;;;;;50.13;46.78;;;;;;;2.18;100.00;101797.53;5016845;28;20053;-82
2022/01/29 07:04:46;;;;;;;47.83;44.85;;;;;;;1.94;100.00;101791.66;5025743;28;20057;-84
2022/01/29 07:07:15;;;;;;;51.70;46.88;;;;;;;2.76;100.00;101799.75;5025883;28;20045;-84
2022/01/29 07:09:41;;;;;;;48.08;44.95;;;;;;;2.94;100.00;101802.63;5027068;28;20049;-83
2022/01/29 07:12:11;;;;;;;66.53;61.65;;;;;;;3.35;100.00;101806.13;5018724;28;20053;-84
2022/01/29 07:14:40;;;;;;;53.00;49.38;;;;;;;2.94;100.00;101805.25;5024119;28;20060;-85
2022/01/29 07:17:11;;;;;;;45.17;42.47;;;;;;;3.04;100.00;101798.25;5033858;28;20049;-84
2022/01/29 07:19:38;;;;;;;47.20;43.70;;;;;;;3.44;100.00;101810.59;5031206;28;20109;-82
2022/01/29 07:22:06;;;;;;;52.05;47.28;;;;;;;3.05;100.00;101820.91;5031440;28;20115;-84
2022/01/29 07:24:35;;;;;;;45.80;42.67;;;;;;;2.55;100.00;101810.25;5028718;28;20053;-84
2022/01/29 07:27:03;;;;;;;51.03;46.92;;;;;;;3.51;100.00;101809.13;5028684;28;20123;-83
2022/01/29 07:29:30;;;;;;;50.22;47.10;;;;;;;3.39;100.00;101823.31;5025650;28;20056;-85
2022/01/29 07:31:57;;;;;;;48.42;44.83;;;;;;;3.94;100.00;101828.19;5028683;28;20049;-82
2022/01/29 07:34:24;;;;;;;45.85;42.65;;;;;;;4.24;100.00;101822.00;5026582;28;20053;-82
2022/01/29 07:36:51;;;;;;;45.30;42.13;;;;;;;3.21;100.00;101826.53;5026988;28;20477;-82
2022/01/29 07:39:18;;;;;;;46.13;43.00;;;;;;;4.24;100.00;101828.09;5029428;28;20517;-83
2022/01/29 07:41:47;;;;;;;47.22;43.60;;;;;;;4.05;100.00;101834.13;5027803;28;20107;-83
2022/01/29 07:44:14;;;;;;;48.35;44.90;;;;;;;4.22;100.00;101835.28;5026239;28;20049;-84
2022/01/29 07:46:42;;;;;;;47.85;44.75;;;;;;;3.31;100.00;101825.75;5030856;28;20130;-83
2022/01/29 07:49:10;;;;;;;51.03;47.35;;;;;;;4.77;100.00;101824.19;5030421;28;20053;-84
2022/01/29 07:51:37;;;;;;;47.90;44.75;;;;;;;3.81;100.00;101838.91;5026802;28;20053;-83
2022/01/29 07:54:05;;;;;;;48.67;45.13;;;;;;;4.66;100.00;101842.75;5030444;28;20053;-85
2022/01/29 07:56:32;;;;;;;45.00;42.10;;;;;;;4.02;100.00;101839.66;5026663;28;20123;-84
2022/01/29 07:59:01;;;;;;;54.53;50.38;;;;;;;4.77;100.00;101835.53;5030815;28;20115;-82
2022/01/29 08:01:28;;;;;;;47.05;43.70;;;;;;;4.28;100.00;101831.25;5020246;28;20062;-82
2022/01/29 08:03:56;;;;;;;49.70;46.40;;;;;;;4.15;100.00;101842.06;5029494;28;20448;-85
2022/01/29 08:06:23;;;;;;;46.15;43.05;;;;;;;5.53;100.00;101837.25;5018570;28;20049;-82
2022/01/29 08:08:51;;;;;;;49.40;46.35;;;;;;;5.13;100.00;101835.75;5019385;28;20042;-82
2022/01/29 08:11:18;;;;;;;51.30;47.67;;;;;;;5.61;100.00;101829.47;5019723;28;20046;-80
2022/01/29 08:13:46;;;;;;;46.47;43.40;;;;;;;4.93;100.00;101834.13;5024697;28;20049;-82
2022/01/29 08:16:14;;;;;;;48.83;45.50;;;;;;;4.78;100.00;101837.22;5026407;28;20049;-80
2022/01/29 08:18:43;;;;;;;53.97;49.65;;;;;;;5.89;100.00;101851.38;5028670;28;20057;-80
2022/01/29 08:21:10;;;;;;;50.28;47.05;;;;;;;5.24;100.00;101854.03;5023724;28;20085;-80
2022/01/29 08:23:36;;;;;;;47.03;43.83;;;;;;;5.08;100.00;101845.88;5017555;28;20124;-81
2022/01/29 08:26:04;;;;;;;46.00;43.10;;;;;;;4.55;100.00;101846.38;5026992;28;20041;-81
2022/01/29 08:28:31;;;;;;;55.00;50.15;;;;;;;4.81;100.00;101851.88;5026833;28;20053;-81
2022/01/29 08:30:58;;;;;;;51.28;47.42;;;;;;;4.92;100.00;101857.00;5023272;28;20050;-82
2022/01/29 08:33:26;;;;;;;83.25;60.05;;;;;;;4.71;100.00;101849.25;5019734;28;20050;-82
2022/01/29 08:35:53;;;;;;;47.83;44.83;;;;;;;5.43;100.00;101854.94;5022701;28;20046;-82
2022/01/29 08:38:21;;;;;;;54.92;50.35;;;;;;;5.15;100.00;101861.97;5024936;28;20053;-81
2022/01/29 08:40:49;;;;;;;50.63;47.33;;;;;;;5.65;100.00;101865.09;5031498;28;20046;-82
2022/01/29 08:43:15;;;;;;;48.72;45.42;;;;;;;6.19;100.00;101855.53;5024035;28;20477;-82
2022/01/29 08:45:43;;;;;;;50.42;46.45;;;;;;;7.15;100.00;101851.38;5031389;28;20050;-80
2022/01/29 08:48:10;;;;;;;47.63;43.97;;;;;;;8.52;100.00;101853.88;5029561;28;20508;-82
2022/01/29 08:50:38;;;;;;;127.55;67.95;;;;;;;6.27;100.00;101861.88;5022105;28;20049;-80
2022/01/29 08:53:04;;;;;;;171.77;85.80;;;;;;;6.83;100.00;101850.16;5025572;28;20045;-82
2022/01/29 08:55:36;;;;;;;49.42;46.25;;;;;;;5.61;100.00;101853.19;5026221;28;20486;-80
2022/01/29 08:58:03;;;;;;;66.57;59.45;;;;;;;6.38;100.00;101861.66;5024868;28;20409;-82
2022/01/29 09:00:30;;;;;;;52.22;48.50;;;;;;;7.69;100.00;101858.09;5022041;28;20472;-81
2022/01/29 09:02:57;;;;;;;51.63;48.13;;;;;;;7.23;100.00;101854.06;5030736;28;20049;-82
2022/01/29 09:05:25;;;;;;;52.15;48.65;;;;;;;7.66;100.00;101852.31;5020810;28;20042;-81
2022/01/29 09:07:53;;;;;;;54.67;50.95;;;;;;;9.15;100.00;101851.34;5016280;28;20075;-82
2022/01/29 09:10:20;;;;;;;54.17;50.67;;;;;;;8.55;100.00;101850.88;5024753;28;20115;-80
2022/01/29 09:12:47;;;;;;;54.67;51.38;;;;;;;7.53;100.00;101858.00;5024513;28;20050;-82
2022/01/29 09:15:14;;;;;;;55.13;51.47;;;;;;;6.27;100.00;101867.16;5022868;28;20053;-81
2022/01/29 09:17:41;;;;;;;53.03;49.53;;;;;;;5.87;100.00;101861.25;5030612;28;20446;-81
2022/01/29 09:20:09;;;;;;;56.38;52.63;;;;;;;8.82;100.00;101855.84;5025503;28;20049;-81
2022/01/29 09:22:37;;;;;;;54.85;51.55;;;;;;;7.10;100.00;101850.00;5023658;28;20057;-81
2022/01/29 09:25:06;;;;;;;54.60;51.10;;;;;;;9.38;100.00;101859.41;5025167;28;20050;-81
2022/01/29 09:27:35;;;;;;;57.63;54.03;;;;;;;7.46;100.00;101852.53;5025535;28;20127;-83
2022/01/29 09:30:02;;;;;;;56.90;53.42;;;;;;;9.29;97.92;101851.63;5024494;28;20107;-82
2022/01/29 09:32:30;;;;;;;58.17;54.58;;;;;;;6.57;100.00;101861.50;5017084;28;20466;-81
2022/01/29 09:34:56;;;;;;;55.80;52.20;;;;;;;5.62;100.00;101851.38;5026653;28;20050;-81
2022/01/29 09:37:24;;;;;;;54.75;51.25;;;;;;;7.89;100.00;101845.44;5026909;28;20045;-80
2022/01/29 09:39:51;;;;;;;57.15;53.75;;;;;;;7.30;100.00;101848.00;5032288;28;20053;-82
2022/01/29 09:42:19;;;;;;;59.25;55.78;;;;;;;9.81;100.00;101851.13;5029241;28;20084;-82
2022/01/29 09:44:48;;;;;;;55.72;52.42;;;;;;;7.23;100.00;101854.91;5031236;28;20049;-80
2022/01/29 09:47:16;;;;;;;57.33;54.03;;;;;;;10.57;87.26;101856.66;5019144;28;20088;-82
2022/01/29 09:49:43;;;;;;;57.67;54.45;;;;;;;10.38;83.05;101849.97;5028003;28;20398;-83
2022/01/29 09:52:10;;;;;;;59.90;56.33;;;;;;;10.74;87.53;101842.22;5026320;28;20061;-82
2022/01/29 09:54:37;;;;;;;58.03;54.17;;;;;;;10.08;77.69;101837.38;5024777;28;20089;-81
2022/01/29 09:57:05;;;;;;;55.92;52.42;;;;;;;9.36;81.81;101848.16;5022679;28;20054;-81
2022/01/29 09:59:33;;;;;;;59.00;55.30;;;;;;;9.38;91.07;101832.06;5022843;28;20526;-81
2022/01/29 10:02:00;;;;;;;59.97;56.10;;;;;;;9.74;84.21;101844.84;5034880;28;20049;-83
2022/01/29 10:04:29;;;;;;;57.60;53.92;;;;;;;13.20;74.82;101842.38;5024982;28;20049;-82
2022/01/29 10:07:16;;;;;;;57.35;53.75;;;;;;;9.80;71.58;101838.84;5029410;28;20085;-81
2022/01/29 10:09:43;;;;;;;57.67;54.35;;;;;;;10.51;83.44;101828.97;5025468;28;20046;-83
2022/01/29 10:12:17;;;;;;;59.95;56.45;;;;;;;10.70;75.92;101825.00;5030784;28;20457;-81
2022/01/29 10:14:51;;;;;;;55.95;52.28;;;;;;;12.52;67.00;101818.91;5019529;28;20050;-83
2022/01/29 10:17:46;;;;;;;54.88;51.40;;;;;;;12.03;69.55;101809.00;5018464;28;20050;-82
2022/01/29 10:20:15;;;;;;;57.53;54.03;;;;;;;11.97;63.36;101806.28;5025630;28;20054;-82
2022/01/29 10:22:42;;;;;;;66.55;62.05;;;;;;;13.88;65.15;101803.28;5025657;28;20462;-83
2022/01/29 10:25:13;;;;;;;55.45;51.78;;;;;;;10.32;65.90;101801.09;5024922;28;20100;-83
2022/01/29 10:27:40;;;;;;;61.22;57.03;;;;;;;12.78;66.21;101804.97;5029471;28;20103;-82
2022/01/29 10:30:12;;;;;;;58.50;54.80;;;;;;;12.65;63.13;101801.38;5022112;28;20045;-82
2022/01/29 10:32:38;;;;;;;57.80;54.17;;;;;;;10.74;63.80;101810.34;5018553;28;20116;-80
2022/01/29 10:35:06;;;;;;;55.95;52.63;;;;;;;13.23;61.36;101810.81;5025499;28;20050;-82
2022/01/29 10:37:33;;;;;;;57.63;54.15;;;;;;;14.49;60.33;101822.91;5025604;28;20108;-81
2022/01/29 10:40:01;;;;;;;58.35;54.95;;;;;;;12.41;65.99;101821.28;5024967;28;20057;-83
2022/01/29 10:42:31;;;;;;;61.67;57.47;;;;;;;11.27;66.25;101821.78;5024260;28;20056;-81
2022/01/29 10:45:02;;;;;;;59.42;55.65;;;;;;;12.53;65.22;101806.44;5027975;28;20053;-83
2022/01/29 10:47:31;;;;;;;58.35;54.95;;;;;;;10.82;64.35;101814.75;5017113;28;20037;-82
2022/01/29 10:50:01;;;;;;;56.85;53.25;;;;;;;13.06;64.58;101806.78;5030475;28;20061;-82
2022/01/29 10:52:30;;;;;;;56.80;53.33;;;;;;;12.16;64.20;101805.66;5025746;28;20081;-81
2022/01/29 10:55:00;;;;;;;60.65;57.15;;;;;;;11.86;65.18;101813.75;5024878;28;20064;-82
2022/01/29 10:57:35;;;;;;;57.65;54.25;;;;;;;14.32;59.69;101809.16;5027076;28;20092;-81
2022/01/29 11:00:04;;;;;;;56.38;53.03;;;;;;;9.95;67.22;101810.56;5027792;28;20046;-82
2022/01/29 11:02:32;;;;;;;57.25;53.85;;;;;;;10.84;67.33;101807.44;5021494;28;20188;-81
2022/01/29 11:05:01;;;;;;;57.90;54.40;;;;;;;13.89;60.74;101809.47;5027568;28;20398;-81
2022/01/29 11:07:29;;;;;;;57.33;53.92;;;;;;;13.48;54.46;101813.00;5024777;28;20049;-82
2022/01/29 11:09:57;;;;;;;59.95;56.35;;;;;;;14.60;57.25;101809.78;5026735;28;20394;-81
2022/01/29 11:12:26;;;;;;;61.00;57.50;;;;;;;10.62;63.23;101802.00;5030391;28;20042;-81
2022/01/29 11:14:54;;;;;;;55.88;52.47;;;;;;;10.74;69.19;101808.53;5026425;28;20551;-81
2022/01/29 11:17:24;;;;;;;61.03;57.22;;;;;;;11.26;66.74;101803.34;5032161;28;20076;-82
2022/01/29 11:19:53;;;;;;;58.80;55.20;;;;;;;11.02;63.66;101802.59;5026370;28;20516;-80
2022/01/29 11:22:22;;;;;;;60.45;56.75;;;;;;;9.25;69.00;101805.25;5032152;28;20053;-80
2022/01/29 11:24:51;;;;;;;62.33;57.95;;;;;;;10.05;73.45;101803.22;5027370;28;20045;-81
2022/01/29 11:27:21;;;;;;;58.15;54.85;;;;;;;10.20;67.11;101816.56;5028799;28;20111;-81